Time;durP1;ratioP1;P1;durP2;ratioP2;P2;SDS_P1;SDS_P2;PMS_P1;PMS_P2;Temp;Humidity;BMP_temperature;BMP_pressure;BME280_temperature;BME280_humidity;BME280_pressure;Samples;Min_cycle;Max_cycle;Signal;HPM_P1;HPM_P2
2023/12/12 00:00:09;;;;;;;;;;;;;;;5.70;100.00;100732.03;5016269;28;22367;-74
2023/12/12 00:02:34;;;;;;;;;;;;;;;5.65;100.00;100731.44;5019972;28;20378;-73
2023/12/12 00:04:59;;;;;;;;;;;;;;;5.67;100.00;100733.09;5019193;28;19925;-73
2023/12/12 00:07:25;;;;;;;;;;;;;;;5.64;100.00;100741.25;5014306;28;19968;-73
2023/12/12 00:09:50;;;;;;;;;;;;;;;5.64;100.00;100741.25;5024431;28;20008;-73
2023/12/12 00:12:15;;;;;;;;;;;;;;;5.58;100.00;100744.28;5011494;28;19966;-73
2023/12/12 00:14:40;;;;;;;;;;;;;;;5.52;100.00;100737.50;5015944;28;19963;-73
2023/12/12 00:17:05;;;;;;;;;;;;;;;5.51;100.00;100743.78;5016372;28;19920;-73
2023/12/12 00:19:31;;;;;;;;;;;;;;;5.49;100.00;100742.13;5016453;28;19920;-73
2023/12/12 00:21:56;;;;;;;;;;;;;;;5.47;100.00;100741.38;5026697;28;19928;-73
2023/12/12 00:24:21;;;;;;;;;;;;;;;5.43;100.00;100740.69;5014041;28;20046;-73
2023/12/12 00:26:46;;;;;;;;;;;;;;;5.44;100.00;100742.41;5014006;28;19925;-73
2023/12/12 00:29:11;;;;;;;;;;;;;;;5.49;100.00;100743.00;5017265;28;19929;-73
2023/12/12 00:31:37;;;;;;;;;;;;;;;5.47;100.00;100744.03;5028619;28;19921;-73
2023/12/12 00:34:02;;;;;;;;;;;;;;;5.39;100.00;100747.13;5015052;28;19921;-73
2023/12/12 00:36:27;;;;;;;;;;;;;;;5.43;100.00;100747.84;5018172;28;19928;-73
2023/12/12 00:38:52;;;;;;;;;;;;;;;5.48;100.00;100756.41;5013310;28;19964;-73
2023/12/12 00:41:18;;;;;;;;;;;;;;;5.40;100.00;100746.19;5015078;28;19948;-73
2023/12/12 00:43:44;;;;;;;;;;;;;;;5.39;100.00;100749.81;5027912;28;19921;-74
2023/12/12 00:46:10;;;;;;;;;;;;;;;5.29;100.00;100753.97;5016650;28;19917;-73
2023/12/12 00:48:35;;;;;;;;;;;;;;;5.24;100.00;100751.53;5030184;28;20493;-73
2023/12/12 00:51:00;;;;;;;;;;;;;;;5.19;100.00;100750.94;5016786;28;20111;-74
2023/12/12 00:53:25;;;;;;;;;;;;;;;5.19;100.00;100748.28;5013307;28;19925;-73
2023/12/12 00:55:50;;;;;;;;;;;;;;;5.16;100.00;100745.81;4998131;28;20099;-73
2023/12/12 00:58:16;;;;;;;;;;;;;;;5.13;100.00;100744.16;5011525;28;19921;-73
2023/12/12 01:00:41;;;;;;;;;;;;;;;5.06;100.00;100748.97;5026453;28;19927;-73
2023/12/12 01:03:06;;;;;;;;;;;;;;;5.02;100.00;100741.25;5013710;28;19925;-73
2023/12/12 01:05:31;;;;;;;;;;;;;;;5.05;100.00;100736.63;5014507;28;19921;-73
2023/12/12 01:07:57;;;;;;;;;;;;;;;5.00;100.00;100735.16;5027082;28;19959;-73
2023/12/12 01:10:22;;;;;;;;;;;;;;;4.97;100.00;100735.34;5014650;28;19971;-73
2023/12/12 01:12:47;;;;;;;;;;;;;;;4.92;100.00;100736.44;5003649;28;19921;-73
2023/12/12 01:15:12;;;;;;;;;;;;;;;4.99;100.00;100728.13;5028140;28;19921;-73
2023/12/12 01:17:38;;;;;;;;;;;;;;;5.03;100.00;100716.38;5028925;28;19932;-73
2023/12/12 01:20:03;;;;;;;;;;;;;;;4.99;100.00;100720.16;5014562;28;20350;-73
2023/12/12 01:22:29;;;;;;;;;;;;;;;4.93;100.00;100716.00;5010015;28;19975;-73
2023/12/12 01:24:54;;;;;;;;;;;;;;;4.84;100.00;100727.19;5014522;28;19925;-73
2023/12/12 01:27:19;;;;;;;;;;;;;;;4.77;100.00;100727.50;5028803;28;19925;-73
2023/12/12 01:29:44;;;;;;;;;;;;;;;4.76;100.00;100728.44;5011657;28;19963;-73
2023/12/12 01:32:09;;;;;;;;;;;;;;;4.83;100.00;100728.97;5011838;28;20023;-73
2023/12/12 01:34:35;;;;;;;;;;;;;;;4.72;100.00;100728.72;5012190;28;20016;-73
2023/12/12 01:37:00;;;;;;;;;;;;;;;4.69;100.00;100727.06;5028939;28;19961;-73
2023/12/12 01:39:25;;;;;;;;;;;;;;;4.64;100.00;100718.47;5026156;28;20433;-73
2023/12/12 01:41:50;;;;;;;;;;;;;;;4.61;100.00;100708.03;5026246;28;19928;-73
2023/12/12 01:44:16;;;;;;;;;;;;;;;4.57;100.00;100707.31;5010823;28;19928;-73
2023/12/12 01:46:42;;;;;;;;;;;;;;;4.56;100.00;100707.44;5029984;28;19925;-73
2023/12/12 01:49:08;;;;;;;;;;;;;;;4.51;100.00;100702.34;5025152;28;19976;-73
2023/12/12 01:51:33;;;;;;;;;;;;;;;4.46;100.00;100697.28;5014067;28;20011;-73
2023/12/12 01:53:58;;;;;;;;;;;;;;;4.35;100.00;100694.38;5011467;28;19991;-73
2023/12/12 01:56:24;;;;;;;;;;;;;;;4.28;100.00;100700.94;5011630;28;19921;-73
2023/12/12 01:58:50;;;;;;;;;;;;;;;4.22;100.00;100691.50;5022230;28;20299;-73
2023/12/12 02:01:15;;;;;;;;;;;;;;;4.19;100.00;100686.34;5026567;28;19921;-73
2023/12/12 02:03:41;;;;;;;;;;;;;;;4.22;100.00;100685.31;5010514;28;19925;-73
2023/12/12 02:06:07;;;;;;;;;;;;;;;4.28;100.00;100682.34;5029715;28;19917;-73
2023/12/12 02:08:32;;;;;;;;;;;;;;;4.30;100.00;100683.97;5027491;28;19924;-73
2023/12/12 02:10:57;;;;;;;;;;;;;;;4.02;100.00;100656.22;5024484;28;19921;-73
2023/12/12 02:13:22;;;;;;;;;;;;;;;4.07;100.00;100690.53;5011854;28;19925;-73
2023/12/12 02:15:47;;;;;;;;;;;;;;;3.96;100.00;100687.56;5010382;28;20009;-73
2023/12/12 02:18:16;;;;;;;;;;;;;;;3.85;100.00;100691.63;5009354;28;20343;-73
2023/12/12 02:20:41;;;;;;;;;;;;;;;3.69;100.00;100701.34;5010514;28;20039;-73
2023/12/12 02:23:07;;;;;;;;;;;;;;;3.65;100.00;100692.69;5007924;28;19925;-73
2023/12/12 02:25:33;;;;;;;;;;;;;;;3.67;100.00;100685.50;5025206;28;19925;-73
2023/12/12 02:27:58;;;;;;;;;;;;;;;3.56;100.00;100663.94;5010329;28;20121;-73
2023/12/12 02:30:23;;;;;;;;;;;;;;;3.73;100.00;100681.66;5024404;28;19967;-74
2023/12/12 02:32:48;;;;;;;;;;;;;;;3.71;100.00;100680.88;5002847;28;19920;-73
2023/12/12 02:35:14;;;;;;;;;;;;;;;3.69;100.00;100680.97;5010246;28;19963;-73
2023/12/12 02:37:39;;;;;;;;;;;;;;;3.66;100.00;100681.13;5025452;28;20063;-73
2023/12/12 02:40:04;;;;;;;;;;;;;;;3.66;100.00;100680.25;5011706;28;20024;-73
2023/12/12 02:42:30;;;;;;;;;;;;;;;3.65;100.00;100674.09;5029694;28;19928;-73
2023/12/12 02:44:55;;;;;;;;;;;;;;;3.63;100.00;100678.63;5014013;28;20035;-74
2023/12/12 02:47:22;;;;;;;;;;;;;;;3.60;100.00;100678.78;5010152;28;19956;-73
2023/12/12 02:49:47;;;;;;;;;;;;;;;3.61;100.00;100672.53;5011003;28;19957;-73
2023/12/12 02:52:13;;;;;;;;;;;;;;;3.70;100.00;100663.22;5049207;28;20008;-74
2023/12/12 02:54:38;;;;;;;;;;;;;;;3.67;100.00;100658.94;5013658;28;19924;-73
2023/12/12 02:57:03;;;;;;;;;;;;;;;3.55;100.00;100655.13;5012274;28;19922;-73
2023/12/12 02:59:28;;;;;;;;;;;;;;;3.48;100.00;100663.47;5015994;28;19921;-73
2023/12/12 03:01:54;;;;;;;;;;;;;;;3.48;100.00;100659.03;5011448;28;19921;-73
2023/12/12 03:04:19;;;;;;;;;;;;;;;3.54;100.00;100647.22;5011339;28;19949;-73
2023/12/12 03:06:44;;;;;;;;;;;;;;;3.56;100.00;100651.53;5015705;28;20015;-73
2023/12/12 03:09:09;;;;;;;;;;;;;;;3.49;100.00;100650.13;5011845;28;19971;-73
2023/12/12 03:11:34;;;;;;;;;;;;;;;3.42;100.00;100654.03;5028188;28;20007;-73
2023/12/12 03:14:00;;;;;;;;;;;;;;;3.42;100.00;100648.72;5000207;28;20023;-74
2023/12/12 03:16:25;;;;;;;;;;;;;;;3.39;100.00;100646.22;5027259;28;19921;-73
2023/12/12 03:18:50;;;;;;;;;;;;;;;3.37;100.00;100640.13;5013341;28;20027;-73
2023/12/12 03:21:16;;;;;;;;;;;;;;;3.37;100.00;100638.34;5021843;28;19921;-73
2023/12/12 03:23:41;;;;;;;;;;;;;;;3.41;100.00;100639.03;5026212;28;19925;-73
2023/12/12 03:26:11;;;;;;;;;;;;;;;3.52;100.00;100635.81;5024821;28;19968;-73
2023/12/12 03:28:36;;;;;;;;;;;;;;;3.65;100.00;100623.66;5010551;28;19990;-73
2023/12/12 03:31:02;;;;;;;;;;;;;;;3.77;100.00;100621.25;5024734;28;20384;-73
2023/12/12 03:33:27;;;;;;;;;;;;;;;3.81;100.00;100614.84;5007970;28;19982;-73
2023/12/12 03:35:52;;;;;;;;;;;;;;;3.85;100.00;100614.59;5008906;28;19917;-73
2023/12/12 03:38:17;;;;;;;;;;;;;;;3.92;100.00;100606.31;5011944;28;19972;-73
2023/12/12 03:40:43;;;;;;;;;;;;;;;3.93;100.00;100606.25;5022503;28;20041;-74
2023/12/12 03:43:08;;;;;;;;;;;;;;;4.01;100.00;100604.00;5012701;28;19926;-73
2023/12/12 03:45:33;;;;;;;;;;;;;;;4.10;100.00;100602.69;5011065;28;19983;-74
2023/12/12 03:47:58;;;;;;;;;;;;;;;4.15;100.00;100589.97;5011833;28;20304;-73
2023/12/12 03:50:23;;;;;;;;;;;;;;;4.30;100.00;100582.97;5019242;28;20540;-74
2023/12/12 03:52:49;;;;;;;;;;;;;;;4.32;100.00;100578.41;5014442;28;19990;-73
2023/12/12 03:55:14;;;;;;;;;;;;;;;4.46;100.00;100567.00;5006845;28;20405;-73
2023/12/12 03:57:39;;;;;;;;;;;;;;;4.68;100.00;100562.28;5013933;28;20327;-74
2023/12/12 04:00:07;;;;;;;;;;;;;;;4.74;100.00;100551.28;5011727;28;20392;-74
2023/12/12 04:02:32;;;;;;;;;;;;;;;4.84;100.00;100540.97;5024753;28;19925;-74
2023/12/12 04:04:57;;;;;;;;;;;;;;;4.92;100.00;100531.59;5021888;28;19937;-73
2023/12/12 04:07:22;;;;;;;;;;;;;;;4.93;100.00;100530.63;5028365;28;19948;-74
2023/12/12 04:09:47;;;;;;;;;;;;;;;4.98;100.00;100533.00;5002393;28;20004;-74
2023/12/12 04:12:13;;;;;;;;;;;;;;;5.01;100.00;100505.38;5013427;28;20541;-73
2023/12/12 04:14:38;;;;;;;;;;;;;;;5.04;100.00;100510.50;5013588;28;19947;-73
2023/12/12 04:17:03;;;;;;;;;;;;;;;4.99;100.00;100488.66;5026067;28;19929;-74
2023/12/12 04:19:28;;;;;;;;;;;;;;;5.14;100.00;100495.69;5024763;28;19929;-73
2023/12/12 04:21:53;;;;;;;;;;;;;;;5.18;100.00;100497.22;5010225;28;19924;-73
2023/12/12 04:24:19;;;;;;;;;;;;;;;5.24;100.00;100501.31;5021984;28;19921;-73
2023/12/12 04:26:44;;;;;;;;;;;;;;;5.21;100.00;100497.03;5023207;28;20337;-74
2023/12/12 04:29:09;;;;;;;;;;;;;;;5.18;100.00;100493.69;5010739;28;20475;-73
2023/12/12 04:31:35;;;;;;;;;;;;;;;5.29;100.00;100499.22;5006905;28;21231;-74
2023/12/12 04:34:01;;;;;;;;;;;;;;;5.22;100.00;100497.88;5009510;28;20273;-73
2023/12/12 04:36:26;;;;;;;;;;;;;;;5.20;100.00;100490.00;5007297;28;20296;-74
2023/12/12 04:38:51;;;;;;;;;;;;;;;5.14;100.00;100498.34;5009629;28;19949;-74
2023/12/12 04:41:16;;;;;;;;;;;;;;;5.07;100.00;100497.88;5008965;28;19921;-73
2023/12/12 04:43:42;;;;;;;;;;;;;;;5.04;100.00;100500.72;5024082;28;19921;-73
2023/12/12 04:46:07;;;;;;;;;;;;;;;5.00;100.00;100498.34;5013270;28;19929;-74
2023/12/12 04:48:32;;;;;;;;;;;;;;;4.93;100.00;100493.38;5014273;28;19970;-73
2023/12/12 04:50:58;;;;;;;;;;;;;;;4.87;100.00;100500.88;5011690;28;19929;-73
2023/12/12 04:53:23;;;;;;;;;;;;;;;4.84;100.00;100503.72;5014657;28;19959;-74
2023/12/12 04:55:48;;;;;;;;;;;;;;;4.92;100.00;100502.31;5013923;28;19931;-73
2023/12/12 04:58:13;;;;;;;;;;;;;;;4.89;100.00;100504.31;5013985;28;19968;-74
2023/12/12 05:00:39;;;;;;;;;;;;;;;4.85;100.00;100492.97;5013480;28;20024;-74
2023/12/12 05:03:04;;;;;;;;;;;;;;;4.89;100.00;100491.84;5012700;28;19925;-73
2023/12/12 05:05:29;;;;;;;;;;;;;;;4.93;100.00;100476.56;5024369;28;19926;-73
2023/12/12 05:07:55;;;;;;;;;;;;;;;4.98;100.00;100471.81;5013123;28;20201;-74
2023/12/12 05:10:21;;;;;;;;;;;;;;;5.03;100.00;100460.91;5015990;28;19964;-73
2023/12/12 05:12:46;;;;;;;;;;;;;;;5.05;100.00;100453.66;5011247;28;19969;-73
2023/12/12 05:15:11;;;;;;;;;;;;;;;5.06;100.00;100448.25;5017766;28;19943;-74
2023/12/12 05:17:36;;;;;;;;;;;;;;;5.17;100.00;100439.63;5026999;28;19925;-74
2023/12/12 05:20:02;;;;;;;;;;;;;;;5.21;100.00;100446.47;5011804;28;20400;-74
2023/12/12 05:22:27;;;;;;;;;;;;;;;5.22;100.00;100434.00;5013496;28;19921;-74
2023/12/12 05:24:53;;;;;;;;;;;;;;;5.24;100.00;100434.78;5014198;28;19932;-74
2023/12/12 05:27:18;;;;;;;;;;;;;;;5.31;100.00;100438.78;5015344;28;19972;-74
2023/12/12 05:29:43;;;;;;;;;;;;;;;5.24;100.00;100440.09;5014947;28;20267;-74
2023/12/12 05:32:08;;;;;;;;;;;;;;;5.32;100.00;100429.84;5029202;28;20043;-74
2023/12/12 05:34:33;;;;;;;;;;;;;;;5.38;100.00;100436.56;5012452;28;20036;-74
2023/12/12 05:36:59;;;;;;;;;;;;;;;5.31;100.00;100430.78;5009717;28;19921;-74
2023/12/12 05:39:24;;;;;;;;;;;;;;;5.30;100.00;100431.72;5026742;28;19964;-74
2023/12/12 05:41:49;;;;;;;;;;;;;;;5.33;100.00;100433.34;5024731;28;19922;-74
2023/12/12 05:44:14;;;;;;;;;;;;;;;5.39;100.00;100423.19;5013139;28;19956;-74
2023/12/12 05:46:40;;;;;;;;;;;;;;;5.39;100.00;100424.97;5012781;28;20032;-74
2023/12/12 05:49:06;;;;;;;;;;;;;;;5.48;100.00;100427.06;5025886;28;19957;-74
2023/12/12 05:51:34;;;;;;;;;;;;;;;5.46;100.00;100433.41;5012270;28;19921;-74
2023/12/12 05:53:59;;;;;;;;;;;;;;;5.46;100.00;100434.28;5014268;28;20298;-74
2023/12/12 05:56:24;;;;;;;;;;;;;;;5.50;100.00;100433.16;5012793;28;19921;-74
2023/12/12 05:58:51;;;;;;;;;;;;;;;5.48;100.00;100436.84;5013657;28;20313;-73
2023/12/12 06:01:17;;;;;;;;;;;;;;;5.68;100.00;100430.25;5010982;28;19963;-73
2023/12/12 06:03:42;;;;;;;;;;;;;;;5.67;100.00;100425.88;5031748;28;19917;-75
2023/12/12 06:06:09;;;;;;;;;;;;;;;5.69;100.00;100426.66;5014063;28;19940;-74
2023/12/12 06:08:34;;;;;;;;;;;;;;;5.65;100.00;100426.00;5014627;28;19971;-74
2023/12/12 06:10:59;;;;;;;;;;;;;;;5.74;100.00;100432.53;5014488;28;19957;-74
2023/12/12 06:13:26;;;;;;;;;;;;;;;5.71;100.00;100427.41;5014504;28;20127;-74
2023/12/12 06:15:51;;;;;;;;;;;;;;;5.63;100.00;100411.06;5012490;28;19925;-74
2023/12/12 06:18:17;;;;;;;;;;;;;;;5.78;100.00;100431.41;5011745;28;20315;-74
2023/12/12 06:20:42;;;;;;;;;;;;;;;5.82;100.00;100424.91;5022086;28;20295;-74
2023/12/12 06:23:08;;;;;;;;;;;;;;;5.83;100.00;100426.59;5010270;28;19994;-74
2023/12/12 06:25:33;;;;;;;;;;;;;;;5.85;100.00;100415.88;5010200;28;19926;-74
2023/12/12 06:27:59;;;;;;;;;;;;;;;5.84;100.00;100412.31;5012171;28;20272;-74
2023/12/12 06:30:24;;;;;;;;;;;;;;;6.02;100.00;100411.25;5026859;28;19936;-74
2023/12/12 06:32:49;;;;;;;;;;;;;;;5.97;100.00;100411.53;5010649;28;19952;-73
2023/12/12 06:35:14;;;;;;;;;;;;;;;5.94;100.00;100403.75;5012427;28;20023;-73
2023/12/12 06:37:40;;;;;;;;;;;;;;;5.95;100.00;100403.66;5013964;28;19964;-74
2023/12/12 06:40:05;;;;;;;;;;;;;;;6.01;100.00;100405.09;5012974;28;19917;-74
2023/12/12 06:42:30;;;;;;;;;;;;;;;5.99;100.00;100410.47;5029250;28;19928;-73
2023/12/12 06:44:56;;;;;;;;;;;;;;;5.94;100.00;100401.94;5029291;28;19963;-73
2023/12/12 06:47:22;;;;;;;;;;;;;;;5.95;100.00;100405.47;5011577;28;20380;-74
2023/12/12 06:49:47;;;;;;;;;;;;;;;6.01;100.00;100402.44;4997053;28;19932;-74
2023/12/12 06:52:12;;;;;;;;;;;;;;;5.97;100.00;100404.38;5008652;28;19921;-74
2023/12/12 06:54:37;;;;;;;;;;;;;;;6.00;100.00;100403.38;5012067;28;19936;-74
2023/12/12 06:57:03;;;;;;;;;;;;;;;6.11;100.00;100403.50;5012239;28;19932;-74
2023/12/12 06:59:29;;;;;;;;;;;;;;;6.09;100.00;100397.44;5010286;28;20372;-74
2023/12/12 07:01:54;;;;;;;;;;;;;;;6.06;100.00;100395.00;5010316;28;20377;-74
2023/12/12 07:04:19;;;;;;;;;;;;;;;5.94;100.00;100377.97;5013372;28;20165;-74
2023/12/12 07:06:45;;;;;;;;;;;;;;;6.06;100.00;100391.44;5008754;28;20364;-74
2023/12/12 07:09:12;;;;;;;;;;;;;;;6.10;100.00;100391.13;5021610;28;20370;-74
2023/12/12 07:11:37;;;;;;;;;;;;;;;6.06;100.00;100388.78;5010651;28;20411;-74
2023/12/12 07:14:03;;;;;;;;;;;;;;;6.03;100.00;100386.31;5012108;28;19924;-74
2023/12/12 07:16:28;;;;;;;;;;;;;;;5.98;100.00;100382.13;5010988;28;19933;-74
2023/12/12 07:18:53;;;;;;;;;;;;;;;5.94;100.00;100382.44;5005388;28;19921;-74
2023/12/12 07:21:19;;;;;;;;;;;;;;;5.88;100.00;100391.69;5012311;28;19931;-74
2023/12/12 07:23:47;;;;;;;;;;;;;;;5.82;100.00;100384.09;5011452;28;20027;-74
2023/12/12 07:26:13;;;;;;;;;;;;;;;5.78;100.00;100391.44;5009863;28;19947;-74
2023/12/12 07:28:39;;;;;;;;;;;;;;;5.75;100.00;100385.44;5023755;28;21306;-74
2023/12/12 07:31:05;;;;;;;;;;;;;;;5.71;100.00;100390.13;5014730;28;20191;-74
2023/12/12 07:33:30;;;;;;;;;;;;;;;5.71;100.00;100390.94;5023658;28;19925;-74
2023/12/12 07:35:55;;;;;;;;;;;;;;;5.69;100.00;100382.19;5022901;28;19959;-74
2023/12/12 07:38:21;;;;;;;;;;;;;;;5.64;100.00;100394.13;5012447;28;19925;-74
2023/12/12 07:40:46;;;;;;;;;;;;;;;5.54;100.00;100401.84;5009077;28;19952;-74
2023/12/12 07:43:11;;;;;;;;;;;;;;;5.54;100.00;100394.72;5012596;28;20036;-74
2023/12/12 07:45:37;;;;;;;;;;;;;;;5.55;100.00;100393.78;5013748;28;19921;-74
2023/12/12 07:48:03;;;;;;;;;;;;;;;5.59;100.00;100383.78;5010984;28;19932;-75
2023/12/12 07:50:28;;;;;;;;;;;;;;;5.60;100.00;100380.16;5009409;28;19921;-74
2023/12/12 07:52:53;;;;;;;;;;;;;;;5.65;100.00;100374.53;5007399;28;19921;-74
2023/12/12 07:55:19;;;;;;;;;;;;;;;5.63;100.00;100365.78;5006920;28;19928;-74
2023/12/12 07:57:45;;;;;;;;;;;;;;;5.65;100.00;100361.19;5009389;28;19932;-74
2023/12/12 08:00:10;;;;;;;;;;;;;;;5.66;100.00;100357.59;5012882;28;19925;-74
2023/12/12 08:02:36;;;;;;;;;;;;;;;5.69;100.00;100344.06;5010777;28;19921;-74
2023/12/12 08:05:01;;;;;;;;;;;;;;;5.74;100.00;100341.09;5000845;28;19921;-74
2023/12/12 08:07:26;;;;;;;;;;;;;;;5.82;100.00;100342.34;5014206;28;20572;-75
2023/12/12 08:09:51;;;;;;;;;;;;;;;5.90;100.00;100338.28;4997509;28;20388;-74
2023/12/12 08:12:17;;;;;;;;;;;;;;;5.93;100.00;100332.75;5012999;28;20015;-74
2023/12/12 08:14:42;;;;;;;;;;;;;;;5.98;100.00;100326.16;5013173;28;20860;-75
2023/12/12 08:17:07;;;;;;;;;;;;;;;6.02;100.00;100323.31;5027321;28;19956;-74
2023/12/12 08:19:32;;;;;;;;;;;;;;;6.09;100.00;100322.78;5026941;28;20256;-74
2023/12/12 08:21:58;;;;;;;;;;;;;;;6.11;100.00;100323.53;4997373;28;20379;-74
2023/12/12 08:24:24;;;;;;;;;;;;;;;6.15;100.00;100324.22;5026177;28;20253;-75
2023/12/12 08:26:49;;;;;;;;;;;;;;;6.17;100.00;100326.75;5021100;28;20469;-74
2023/12/12 08:29:14;;;;;;;;;;;;;;;6.18;100.00;100329.34;5031980;28;20402;-74
2023/12/12 08:31:40;;;;;;;;;;;;;;;6.22;100.00;100330.84;5015227;28;20332;-74
2023/12/12 08:34:05;;;;;;;;;;;;;;;6.29;100.00;100325.94;5010131;28;19920;-74
2023/12/12 08:36:30;;;;;;;;;;;;;;;6.26;100.00;100326.97;5022116;28;20237;-74
2023/12/12 08:38:58;;;;;;;;;;;;;;;6.27;100.00;100330.53;5014561;28;19925;-74
2023/12/12 08:41:23;;;;;;;;;;;;;;;6.06;100.00;100308.84;5026885;28;19924;-74
2023/12/12 08:43:48;;;;;;;;;;;;;;;6.25;100.00;100330.59;5014828;28;19928;-74
2023/12/12 08:46:13;;;;;;;;;;;;;;;6.25;100.00;100330.59;5024661;28;20036;-74
2023/12/12 08:48:39;;;;;;;;;;;;;;;6.27;100.00;100335.84;5007816;28;19958;-74
2023/12/12 08:51:04;;;;;;;;;;;;;;;6.24;100.00;100330.72;5025939;28;19928;-74
2023/12/12 08:53:29;;;;;;;;;;;;;;;6.34;100.00;100328.28;5009600;28;19928;-74
2023/12/12 08:55:55;;;;;;;;;;;;;;;6.40;100.00;100339.38;5012655;28;19925;-75
2023/12/12 08:58:21;;;;;;;;;;;;;;;6.50;100.00;100338.75;5013878;28;20014;-74
2023/12/12 09:00:46;;;;;;;;;;;;;;;6.60;100.00;100334.50;5010731;28;19991;-74
2023/12/12 09:03:12;;;;;;;;;;;;;;;6.88;100.00;100336.09;5029198;28;19925;-74
2023/12/12 09:05:37;;;;;;;;;;;;;;;7.10;100.00;100331.06;5011442;28;19921;-74
2023/12/12 09:08:03;;;;;;;;;;;;;;;7.16;100.00;100343.94;5013891;28;20206;-75
2023/12/12 09:10:28;;;;;;;;;;;;;;;7.30;100.00;100354.50;5018677;28;19971;-74
2023/12/12 09:12:54;;;;;;;;;;;;;;;7.57;100.00;100358.81;5024212;28;19917;-74
2023/12/12 09:15:19;;;;;;;;;;;;;;;7.61;100.00;100375.47;5016452;28;19925;-73
2023/12/12 09:17:44;;;;;;;;;;;;;;;7.67;100.00;100367.00;5033007;28;20421;-74
2023/12/12 09:20:11;;;;;;;;;;;;;;;7.71;100.00;100362.28;5015849;28;20030;-73
2023/12/12 09:22:36;;;;;;;;;;;;;;;7.84;100.00;100362.22;5016186;28;19921;-73
2023/12/12 09:25:02;;;;;;;;;;;;;;;8.04;100.00;100353.59;5015661;28;19978;-73
2023/12/12 09:27:27;;;;;;;;;;;;;;;8.54;100.00;100365.94;5019631;28;19941;-73
2023/12/12 09:29:52;;;;;;;;;;;;;;;9.05;100.00;100374.53;5016171;28;19925;-73
2023/12/12 09:32:17;;;;;;;;;;;;;;;9.55;100.00;100385.69;5018775;28;19920;-73
2023/12/12 09:34:42;;;;;;;;;;;;;;;9.81;100.00;100387.22;5011767;28;20035;-73
2023/12/12 09:37:08;;;;;;;;;;;;;;;9.99;100.00;100383.03;5016813;28;19917;-73
2023/12/12 09:39:33;;;;;;;;;;;;;;;9.79;100.00;100389.19;5015421;28;19917;-74
2023/12/12 09:41:59;;;;;;;;;;;;;;;9.86;100.00;100398.41;5013314;28;19972;-74
2023/12/12 09:44:24;;;;;;;;;;;;;;;10.03;100.00;100389.84;5014564;28;20024;-74
2023/12/12 09:46:49;;;;;;;;;;;;;;;10.31;100.00;100392.06;5016960;28;20389;-73
2023/12/12 09:49:15;;;;;;;;;;;;;;;10.56;100.00;100390.88;5016489;28;19921;-73
2023/12/12 09:51:40;;;;;;;;;;;;;;;10.18;100.00;100384.19;5029618;28;20681;-73
2023/12/12 09:54:07;;;;;;;;;;;;;;;10.20;100.00;100372.31;5008651;28;19920;-74
2023/12/12 09:56:33;;;;;;;;;;;;;;;10.02;100.00;100374.75;5025917;28;19987;-73
2023/12/12 09:58:58;;;;;;;;;;;;;;;10.07;100.00;100360.94;5012470;28;19918;-73
2023/12/12 10:01:24;;;;;;;;;;;;;;;9.90;100.00;100363.22;5007214;28;20197;-74
2023/12/12 10:03:49;;;;;;;;;;;;;;;9.94;100.00;100366.47;5014439;28;19922;-73
2023/12/12 10:06:14;;;;;;;;;;;;;;;10.14;100.00;100361.28;5010400;28;19921;-74
2023/12/12 10:08:39;;;;;;;;;;;;;;;10.14;100.00;100358.59;5008885;28;19929;-74
2023/12/12 10:11:05;;;;;;;;;;;;;;;10.52;100.00;100357.22;5023264;28;20529;-74
2023/12/12 10:13:45;;;;;;;;;;;;;;;10.46;100.00;100345.16;5007556;28;20130;-74
2023/12/12 10:16:10;;;;;;;;;;;;;;;10.28;100.00;100354.75;5010768;28;19954;-74
2023/12/12 10:18:35;;;;;;;;;;;;;;;10.27;100.00;100351.22;5013147;28;19921;-73
2023/12/12 10:21:07;;;;;;;;;;;;;;;10.53;100.00;100341.94;5014990;28;20032;-74
2023/12/12 10:23:33;;;;;;;;;;;;;;;11.19;100.00;100324.63;5011768;28;19952;-74
2023/12/12 10:25:59;;;;;;;;;;;;;;;11.61;100.00;100310.16;5027920;28;20033;-74
2023/12/12 10:28:24;;;;;;;;;;;;;;;11.79;100.00;100303.09;5012571;28;19964;-73
2023/12/12 10:30:52;;;;;;;;;;;;;;;12.01;100.00;100306.50;5012308;28;20031;-73
2023/12/12 10:33:17;;;;;;;;;;;;;;;12.44;100.00;100298.97;5009141;28;19921;-73
2023/12/12 10:35:43;;;;;;;;;;;;;;;12.21;100.00;100299.28;5011703;28;19928;-73
2023/12/12 10:38:09;;;;;;;;;;;;;;;12.12;100.00;100300.13;5011671;28;20326;-73
2023/12/12 10:40:35;;;;;;;;;;;;;;;12.09;100.00;100295.91;5044168;28;19921;-73
2023/12/12 10:43:00;;;;;;;;;;;;;;;11.91;100.00;100295.72;5008196;28;19928;-73
2023/12/12 10:45:25;;;;;;;;;;;;;;;11.55;100.00;100290.91;5010686;28;19925;-74
2023/12/12 10:47:51;;;;;;;;;;;;;;;11.34;100.00;100290.16;5005515;28;20020;-74
2023/12/12 10:50:17;;;;;;;;;;;;;;;11.13;100.00;100291.06;5007832;28;19917;-74
2023/12/12 10:52:44;;;;;;;;;;;;;;;11.16;100.00;100245.13;5007684;28;19921;-74
2023/12/12 10:55:09;;;;;;;;;;;;;;;11.57;100.00;100281.84;5025297;28;19922;-73
2023/12/12 10:57:35;;;;;;;;;;;;;;;11.96;100.00;100263.88;5011329;28;19924;-74
2023/12/12 11:00:00;;;;;;;;;;;;;;;13.08;100.00;100257.88;5011720;28;19968;-74
2023/12/12 11:02:25;;;;;;;;;;;;;;;13.45;100.00;100255.13;5018882;28;20196;-74
2023/12/12 11:04:51;;;;;;;;;;;;;;;13.61;100.00;100253.63;5010995;28;20407;-73
2023/12/12 11:07:16;;;;;;;;;;;;;;;13.53;100.00;100248.13;5014214;28;20313;-73
2023/12/12 11:09:41;;;;;;;;;;;;;;;13.57;100.00;100247.66;5021195;28;20382;-73
2023/12/12 11:12:06;;;;;;;;;;;;;;;13.53;100.00;100240.03;5007277;28;20056;-73
2023/12/12 11:14:32;;;;;;;;;;;;;;;13.86;100.00;100235.78;5019269;28;19925;-73
2023/12/12 11:16:59;;;;;;;;;;;;;;;13.90;100.00;100229.06;5010096;28;19924;-73
2023/12/12 11:19:24;;;;;;;;;;;;;;;14.32;100.00;100232.06;5011202;28;20466;-74
2023/12/12 11:21:49;;;;;;;;;;;;;;;14.72;100.00;100222.53;4993801;28;20523;-73
2023/12/12 11:24:17;;;;;;;;;;;;;;;14.92;100.00;100220.44;5011599;28;20145;-73
2023/12/12 11:26:44;;;;;;;;;;;;;;;14.94;100.00;100212.16;5009752;28;19928;-72
2023/12/12 11:29:10;;;;;;;;;;;;;;;15.01;100.00;100224.00;5011697;28;19995;-72
2023/12/12 11:31:36;;;;;;;;;;;;;;;15.04;100.00;100212.88;5007912;28;20419;-73
2023/12/12 11:34:05;;;;;;;;;;;;;;;15.23;100.00;100200.88;5006447;28;19921;-73
2023/12/12 11:36:50;;;;;;;;;;;;;;;14.72;100.00;100210.88;4999017;28;19925;-72
2023/12/12 11:39:22;;;;;;;;;;;;;;;14.30;100.00;100204.41;5021973;28;19917;-72
2023/12/12 11:41:47;;;;;;;;;;;;;;;13.80;100.00;100202.19;5007294;28;19983;-73
2023/12/12 11:44:12;;;;;;;;;;;;;;;13.69;100.00;100190.78;5026016;28;20364;-73
2023/12/12 11:46:37;;;;;;;;;;;;;;;13.03;100.00;100178.34;5009027;28;20380;-72
2023/12/12 11:49:19;;;;;;;;;;;;;;;13.78;100.00;100179.91;5011814;28;19960;-72
2023/12/12 11:51:46;;;;;;;;;;;;;;;13.82;100.00;100177.72;5014674;28;19955;-72
2023/12/12 11:54:17;;;;;;;;;;;;;;;13.94;100.00;100178.31;5023535;28;19927;-72
2023/12/12 11:56:42;;;;;;;;;;;;;;;13.35;100.00;100170.75;5028696;28;19921;-73
2023/12/12 11:59:08;;;;;;;;;;;;;;;13.53;100.00;100169.91;5008323;28;20406;-75
2023/12/12 12:01:33;;;;;;;;;;;;;;;13.34;100.00;100156.41;5009106;28;20600;-73
2023/12/12 12:03:58;;;;;;;;;;;;;;;12.27;100.00;100157.88;5021989;28;20531;-72
2023/12/12 12:06:23;;;;;;;;;;;;;;;11.85;100.00;100157.28;5010080;28;20286;-72
2023/12/12 12:08:50;;;;;;;;;;;;;;;11.70;100.00;100148.81;5013337;28;20265;-72
2023/12/12 12:11:15;;;;;;;;;;;;;;;11.64;100.00;100140.47;5013110;28;21291;-74
2023/12/12 12:13:41;;;;;;;;;;;;;;;11.47;100.00;100131.28;5023497;28;19920;-73
2023/12/12 12:16:10;;;;;;;;;;;;;;;11.11;100.00;100137.25;5008862;28;19932;-74
2023/12/12 12:18:35;;;;;;;;;;;;;;;11.01;100.00;100137.22;5020034;28;20122;-72
2023/12/12 12:21:03;;;;;;;;;;;;;;;10.76;100.00;100131.38;5023978;28;19921;-73
2023/12/12 12:23:28;;;;;;;;;;;;;;;10.70;100.00;100123.91;5026464;28;19955;-74
2023/12/12 12:25:58;;;;;;;;;;;;;;;10.67;100.00;100120.63;5014572;28;20283;-72